sensor_id;sensor_type;location;lat;lon;timestamp;P1;durP1;ratioP1;P2;durP2;ratioP2
5533;SDS011;2789;51.902;7.636;2024-02-21T00:00:48;44.80;;;40.30;;
5533;SDS011;2789;51.902;7.636;2024-02-21T00:01:50;49.30;;;44.00;;
5533;SDS011;2789;51.902;7.636;2024-02-21T00:02:53;46.58;;;42.15;;
5533;SDS011;2789;51.902;7.636;2024-02-21T00:03:57;48.10;;;43.30;;
5533;SDS011;2789;51.902;7.636;2024-02-21T00:05:00;69.10;;;55.42;;
5533;SDS011;2789;51.902;7.636;2024-02-21T00:06:02;49.92;;;45.00;;
5533;SDS011;2789;51.902;7.636;2024-02-21T00:07:05;45.55;;;41.13;;
5533;SDS011;2789;51.902;7.636;2024-02-21T00:08:08;53.70;;;46.35;;
5533;SDS011;2789;51.902;7.636;2024-02-21T00:09:11;51.42;;;42.95;;
5533;SDS011;2789;51.902;7.636;2024-02-21T00:10:12;69.03;;;52.33;;
5533;SDS011;2789;51.902;7.636;2024-02-21T00:11:15;51.83;;;46.35;;
5533;SDS011;2789;51.902;7.636;2024-02-21T00:12:17;80.07;;;58.97;;
5533;SDS011;2789;51.902;7.636;2024-02-21T00:13:19;63.40;;;52.10;;
5533;SDS011;2789;51.902;7.636;2024-02-21T00:14:21;48.80;;;43.90;;
5533;SDS011;2789;51.902;7.636;2024-02-21T00:15:24;92.32;;;52.13;;
5533;SDS011;2789;51.902;7.636;2024-02-21T00:16:25;53.97;;;35.85;;
5533;SDS011;2789;51.902;7.636;2024-02-21T00:17:28;44.28;;;32.25;;
5533;SDS011;2789;51.902;7.636;2024-02-21T00:18:30;28.10;;;25.48;;
5533;SDS011;2789;51.902;7.636;2024-02-21T00:19:32;31.77;;;28.15;;
5533;SDS011;2789;51.902;7.636;2024-02-21T00:20:34;40.13;;;34.30;;
5533;SDS011;2789;51.902;7.636;2024-02-21T00:21:36;53.17;;;39.85;;
5533;SDS011;2789;51.902;7.636;2024-02-21T00:22:39;27.13;;;24.52;;
5533;SDS011;2789;51.902;7.636;2024-02-21T00:23:42;54.85;;;34.13;;
5533;SDS011;2789;51.902;7.636;2024-02-21T00:24:43;33.08;;;29.85;;
5533;SDS011;2789;51.902;7.636;2024-02-21T00:25:46;32.67;;;30.10;;
5533;SDS011;2789;51.902;7.636;2024-02-21T00:26:47;47.35;;;35.17;;
5533;SDS011;2789;51.902;7.636;2024-02-21T00:27:50;45.63;;;41.05;;
5533;SDS011;2789;51.902;7.636;2024-02-21T00:28:52;39.85;;;35.85;;
5533;SDS011;2789;51.902;7.636;2024-02-21T00:29:55;45.17;;;40.45;;
5533;SDS011;2789;51.902;7.636;2024-02-21T00:30:57;40.33;;;36.42;;
5533;SDS011;2789;51.902;7.636;2024-02-21T00:31:59;47.40;;;42.65;;
5533;SDS011;2789;51.902;7.636;2024-02-21T00:33:01;34.78;;;31.92;;
5533;SDS011;2789;51.902;7.636;2024-02-21T00:34:04;36.58;;;32.97;;
5533;SDS011;2789;51.902;7.636;2024-02-21T00:35:06;47.10;;;42.28;;
5533;SDS011;2789;51.902;7.636;2024-02-21T00:36:09;64.53;;;49.30;;
5533;SDS011;2789;51.902;7.636;2024-02-21T00:37:11;52.20;;;44.80;;
5533;SDS011;2789;51.902;7.636;2024-02-21T00:38:13;77.78;;;54.70;;
5533;SDS011;2789;51.902;7.636;2024-02-21T00:39:16;64.30;;;50.72;;
5533;SDS011;2789;51.902;7.636;2024-02-21T00:40:19;54.40;;;46.33;;
5533;SDS011;2789;51.902;7.636;2024-02-21T00:41:23;68.68;;;53.33;;
5533;SDS011;2789;51.902;7.636;2024-02-21T00:42:25;60.45;;;50.55;;
5533;SDS011;2789;51.902;7.636;2024-02-21T00:43:27;57.17;;;47.00;;
5533;SDS011;2789;51.902;7.636;2024-02-21T00:44:30;36.00;;;31.38;;
5533;SDS011;2789;51.902;7.636;2024-02-21T00:45:31;32.22;;;29.05;;
5533;SDS011;2789;51.902;7.636;2024-02-21T00:46:34;33.17;;;30.35;;
5533;SDS011;2789;51.902;7.636;2024-02-21T00:47:35;63.08;;;50.70;;
5533;SDS011;2789;51.902;7.636;2024-02-21T00:48:38;45.35;;;36.72;;
5533;SDS011;2789;51.902;7.636;2024-02-21T00:49:40;36.40;;;32.63;;
5533;SDS011;2789;51.902;7.636;2024-02-21T00:50:42;49.55;;;43.17;;
5533;SDS011;2789;51.902;7.636;2024-02-21T00:51:44;70.68;;;54.95;;
5533;SDS011;2789;51.902;7.636;2024-02-21T00:52:46;51.10;;;45.60;;
5533;SDS011;2789;51.902;7.636;2024-02-21T00:53:50;88.28;;;61.88;;
5533;SDS011;2789;51.902;7.636;2024-02-21T00:54:52;50.92;;;44.95;;
5533;SDS011;2789;51.902;7.636;2024-02-21T00:55:55;42.67;;;38.35;;
5533;SDS011;2789;51.902;7.636;2024-02-21T00:56:58;48.10;;;42.97;;
5533;SDS011;2789;51.902;7.636;2024-02-21T00:58:00;50.78;;;43.03;;
5533;SDS011;2789;51.902;7.636;2024-02-21T00:59:02;49.33;;;40.08;;
5533;SDS011;2789;51.902;7.636;2024-02-21T01:00:05;46.40;;;40.38;;
5533;SDS011;2789;51.902;7.636;2024-02-21T01:01:08;37.03;;;33.10;;
5533;SDS011;2789;51.902;7.636;2024-02-21T01:02:10;43.58;;;38.65;;
5533;SDS011;2789;51.902;7.636;2024-02-21T01:03:13;66.78;;;50.40;;
5533;SDS011;2789;51.902;7.636;2024-02-21T01:04:14;49.08;;;40.40;;
5533;SDS011;2789;51.902;7.636;2024-02-21T01:05:17;66.03;;;51.60;;
5533;SDS011;2789;51.902;7.636;2024-02-21T01:06:19;98.60;;;67.35;;
5533;SDS011;2789;51.902;7.636;2024-02-21T01:07:21;72.30;;;55.13;;
5533;SDS011;2789;51.902;7.636;2024-02-21T01:08:23;71.05;;;53.90;;
5533;SDS011;2789;51.902;7.636;2024-02-21T01:09:25;84.45;;;58.90;;
5533;SDS011;2789;51.902;7.636;2024-02-21T01:10:29;61.70;;;49.53;;
5533;SDS011;2789;51.902;7.636;2024-02-21T01:11:31;44.15;;;39.17;;
5533;SDS011;2789;51.902;7.636;2024-02-21T01:12:33;49.63;;;43.45;;
5533;SDS011;2789;51.902;7.636;2024-02-21T01:13:35;58.13;;;47.55;;
5533;SDS011;2789;51.902;7.636;2024-02-21T01:14:37;72.18;;;51.17;;
5533;SDS011;2789;51.902;7.636;2024-02-21T01:15:40;44.55;;;39.95;;
5533;SDS011;2789;51.902;7.636;2024-02-21T01:16:41;44.35;;;39.60;;
5533;SDS011;2789;51.902;7.636;2024-02-21T01:17:44;72.10;;;54.67;;
5533;SDS011;2789;51.902;7.636;2024-02-21T01:18:46;65.68;;;48.20;;
5533;SDS011;2789;51.902;7.636;2024-02-21T01:19:48;45.63;;;41.08;;
5533;SDS011;2789;51.902;7.636;2024-02-21T01:20:50;63.65;;;53.20;;
5533;SDS011;2789;51.902;7.636;2024-02-21T01:21:53;71.35;;;51.58;;
5533;SDS011;2789;51.902;7.636;2024-02-21T01:22:54;75.50;;;55.58;;
5533;SDS011;2789;51.902;7.636;2024-02-21T01:23:57;64.90;;;51.42;;
5533;SDS011;2789;51.902;7.636;2024-02-21T01:24:59;63.78;;;51.85;;
5533;SDS011;2789;51.902;7.636;2024-02-21T01:26:03;119.00;;;76.50;;
5533;SDS011;2789;51.902;7.636;2024-02-21T01:27:05;61.10;;;51.60;;
5533;SDS011;2789;51.902;7.636;2024-02-21T01:28:07;68.60;;;54.78;;
5533;SDS011;2789;51.902;7.636;2024-02-21T01:29:09;65.43;;;51.25;;
5533;SDS011;2789;51.902;7.636;2024-02-21T01:30:12;55.20;;;49.15;;
5533;SDS011;2789;51.902;7.636;2024-02-21T01:31:14;56.45;;;46.95;;
5533;SDS011;2789;51.902;7.636;2024-02-21T01:32:17;49.10;;;40.05;;
5533;SDS011;2789;51.902;7.636;2024-02-21T01:33:18;51.97;;;40.95;;
5533;SDS011;2789;51.902;7.636;2024-02-21T01:34:20;65.47;;;52.45;;
5533;SDS011;2789;51.902;7.636;2024-02-21T01:35:23;59.65;;;46.88;;
5533;SDS011;2789;51.902;7.636;2024-02-21T01:36:25;85.80;;;58.17;;
5533;SDS011;2789;51.902;7.636;2024-02-21T01:37:27;73.07;;;54.20;;
5533;SDS011;2789;51.902;7.636;2024-02-21T01:38:29;59.88;;;48.13;;
5533;SDS011;2789;51.902;7.636;2024-02-21T01:39:33;47.45;;;42.35;;
5533;SDS011;2789;51.902;7.636;2024-02-21T01:40:34;67.43;;;55.72;;
5533;SDS011;2789;51.902;7.636;2024-02-21T01:41:39;54.05;;;48.42;;
5533;SDS011;2789;51.902;7.636;2024-02-21T01:42:41;44.70;;;40.17;;
5533;SDS011;2789;51.902;7.636;2024-02-21T01:43:44;51.97;;;46.28;;
5533;SDS011;2789;51.902;7.636;2024-02-21T01:44:46;37.22;;;33.78;;
5533;SDS011;2789;51.902;7.636;2024-02-21T01:45:48;42.70;;;35.53;;
5533;SDS011;2789;51.902;7.636;2024-02-21T01:46:52;41.58;;;33.67;;
5533;SDS011;2789;51.902;7.636;2024-02-21T01:47:54;37.97;;;34.00;;
5533;SDS011;2789;51.902;7.636;2024-02-21T01:48:57;43.88;;;38.05;;
5533;SDS011;2789;51.902;7.636;2024-02-21T01:49:59;48.33;;;41.47;;
5533;SDS011;2789;51.902;7.636;2024-02-21T01:51:03;41.20;;;37.00;;
5533;SDS011;2789;51.902;7.636;2024-02-21T01:52:05;45.00;;;36.97;;
5533;SDS011;2789;51.902;7.636;2024-02-21T01:53:08;60.80;;;46.58;;
5533;SDS011;2789;51.902;7.636;2024-02-21T01:54:10;47.72;;;42.70;;
5533;SDS011;2789;51.902;7.636;2024-02-21T01:55:15;49.15;;;43.83;;
5533;SDS011;2789;51.902;7.636;2024-02-21T01:56:17;87.15;;;60.70;;
5533;SDS011;2789;51.902;7.636;2024-02-21T01:57:21;67.85;;;51.80;;
5533;SDS011;2789;51.902;7.636;2024-02-21T01:58:23;76.72;;;56.35;;
5533;SDS011;2789;51.902;7.636;2024-02-21T01:59:26;65.35;;;50.90;;
5533;SDS011;2789;51.902;7.636;2024-02-21T02:00:28;72.45;;;55.00;;
5533;SDS011;2789;51.902;7.636;2024-02-21T02:01:30;90.00;;;61.13;;
5533;SDS011;2789;51.902;7.636;2024-02-21T02:02:32;70.35;;;54.50;;
5533;SDS011;2789;51.902;7.636;2024-02-21T02:03:35;42.45;;;38.33;;
5533;SDS011;2789;51.902;7.636;2024-02-21T02:04:37;62.28;;;50.67;;
5533;SDS011;2789;51.902;7.636;2024-02-21T02:05:41;51.90;;;46.78;;
5533;SDS011;2789;51.902;7.636;2024-02-21T02:06:42;44.97;;;40.28;;
5533;SDS011;2789;51.902;7.636;2024-02-21T02:07:45;46.33;;;40.10;;
5533;SDS011;2789;51.902;7.636;2024-02-21T02:08:47;50.40;;;44.83;;
5533;SDS011;2789;51.902;7.636;2024-02-21T02:09:50;57.10;;;47.38;;
5533;SDS011;2789;51.902;7.636;2024-02-21T02:10:51;59.78;;;49.80;;
5533;SDS011;2789;51.902;7.636;2024-02-21T02:11:54;51.53;;;45.97;;
5533;SDS011;2789;51.902;7.636;2024-02-21T02:12:57;58.00;;;49.67;;
5533;SDS011;2789;51.902;7.636;2024-02-21T02:14:00;54.67;;;46.05;;
5533;SDS011;2789;51.902;7.636;2024-02-21T02:15:02;63.00;;;52.83;;
5533;SDS011;2789;51.902;7.636;2024-02-21T02:16:06;89.55;;;68.30;;
5533;SDS011;2789;51.902;7.636;2024-02-21T02:17:07;96.95;;;66.05;;
5533;SDS011;2789;51.902;7.636;2024-02-21T02:18:11;62.60;;;52.08;;
5533;SDS011;2789;51.902;7.636;2024-02-21T02:19:13;44.90;;;40.63;;
5533;SDS011;2789;51.902;7.636;2024-02-21T02:20:17;68.85;;;53.58;;
5533;SDS011;2789;51.902;7.636;2024-02-21T02:21:23;63.78;;;52.90;;
5533;SDS011;2789;51.902;7.636;2024-02-21T02:22:27;73.53;;;55.95;;
5533;SDS011;2789;51.902;7.636;2024-02-21T02:23:31;85.78;;;63.40;;
5533;SDS011;2789;51.902;7.636;2024-02-21T02:24:34;83.10;;;61.28;;
5533;SDS011;2789;51.902;7.636;2024-02-21T02:25:36;80.53;;;58.78;;
5533;SDS011;2789;51.902;7.636;2024-02-21T02:26:38;90.55;;;64.60;;
5533;SDS011;2789;51.902;7.636;2024-02-21T02:27:43;92.22;;;62.70;;
5533;SDS011;2789;51.902;7.636;2024-02-21T02:28:46;59.08;;;49.10;;
5533;SDS011;2789;51.902;7.636;2024-02-21T02:30:48;50.78;;;45.38;;
5533;SDS011;2789;51.902;7.636;2024-02-21T02:31:51;61.35;;;53.40;;
5533;SDS011;2789;51.902;7.636;2024-02-21T02:32:53;66.97;;;54.60;;
5533;SDS011;2789;51.902;7.636;2024-02-21T02:33:56;58.53;;;50.25;;
5533;SDS011;2789;51.902;7.636;2024-02-21T02:34:58;47.38;;;42.53;;
5533;SDS011;2789;51.902;7.636;2024-02-21T02:36:00;61.58;;;52.10;;
5533;SDS011;2789;51.902;7.636;2024-02-21T02:37:02;84.20;;;61.65;;
5533;SDS011;2789;51.902;7.636;2024-02-21T02:38:05;81.10;;;62.47;;
5533;SDS011;2789;51.902;7.636;2024-02-21T02:39:09;72.80;;;58.63;;
5533;SDS011;2789;51.902;7.636;2024-02-21T02:40:11;92.05;;;67.20;;
5533;SDS011;2789;51.902;7.636;2024-02-21T02:41:14;76.00;;;59.95;;
5533;SDS011;2789;51.902;7.636;2024-02-21T02:42:16;82.82;;;63.13;;
5533;SDS011;2789;51.902;7.636;2024-02-21T02:43:18;46.38;;;41.65;;
5533;SDS011;2789;51.902;7.636;2024-02-21T02:44:19;48.38;;;43.47;;
5533;SDS011;2789;51.902;7.636;2024-02-21T02:45:22;83.88;;;61.28;;
5533;SDS011;2789;51.902;7.636;2024-02-21T02:46:25;100.95;;;71.03;;
5533;SDS011;2789;51.902;7.636;2024-02-21T02:47:27;79.18;;;62.25;;
5533;SDS011;2789;51.902;7.636;2024-02-21T02:48:29;55.13;;;48.90;;
5533;SDS011;2789;51.902;7.636;2024-02-21T02:49:32;89.35;;;62.03;;
5533;SDS011;2789;51.902;7.636;2024-02-21T02:50:33;81.20;;;61.45;;
5533;SDS011;2789;51.902;7.636;2024-02-21T02:51:36;65.20;;;51.55;;
5533;SDS011;2789;51.902;7.636;2024-02-21T02:52:38;58.17;;;50.92;;
5533;SDS011;2789;51.902;7.636;2024-02-21T02:53:40;62.75;;;51.17;;
5533;SDS011;2789;51.902;7.636;2024-02-21T02:54:43;54.53;;;48.83;;
5533;SDS011;2789;51.902;7.636;2024-02-21T02:55:46;61.55;;;52.92;;
5533;SDS011;2789;51.902;7.636;2024-02-21T02:56:49;88.40;;;65.63;;
5533;SDS011;2789;51.902;7.636;2024-02-21T02:57:52;32.55;;;29.48;;
5533;SDS011;2789;51.902;7.636;2024-02-21T02:58:53;41.88;;;34.08;;
5533;SDS011;2789;51.902;7.636;2024-02-21T02:59:56;30.95;;;27.85;;
5533;SDS011;2789;51.902;7.636;2024-02-21T03:00:58;61.83;;;46.53;;
5533;SDS011;2789;51.902;7.636;2024-02-21T03:02:00;32.00;;;28.67;;
5533;SDS011;2789;51.902;7.636;2024-02-21T03:03:03;39.67;;;33.05;;
5533;SDS011;2789;51.902;7.636;2024-02-21T03:04:06;52.95;;;37.97;;
5533;SDS011;2789;51.902;7.636;2024-02-21T03:05:11;34.25;;;28.95;;
5533;SDS011;2789;51.902;7.636;2024-02-21T03:06:15;43.63;;;28.52;;
5533;SDS011;2789;51.902;7.636;2024-02-21T03:07:17;43.72;;;28.25;;
5533;SDS011;2789;51.902;7.636;2024-02-21T03:08:20;44.20;;;28.15;;
5533;SDS011;2789;51.902;7.636;2024-02-21T03:09:21;32.55;;;20.95;;
5533;SDS011;2789;51.902;7.636;2024-02-21T03:10:25;29.33;;;20.92;;
5533;SDS011;2789;51.902;7.636;2024-02-21T03:11:27;41.55;;;24.35;;
5533;SDS011;2789;51.902;7.636;2024-02-21T03:12:31;38.00;;;22.52;;
5533;SDS011;2789;51.902;7.636;2024-02-21T03:13:33;26.48;;;19.15;;
5533;SDS011;2789;51.902;7.636;2024-02-21T03:14:35;49.65;;;27.92;;
5533;SDS011;2789;51.902;7.636;2024-02-21T03:15:37;62.25;;;36.33;;
5533;SDS011;2789;51.902;7.636;2024-02-21T03:16:39;40.60;;;26.63;;
5533;SDS011;2789;51.902;7.636;2024-02-21T03:17:42;47.75;;;31.92;;
5533;SDS011;2789;51.902;7.636;2024-02-21T03:18:44;21.98;;;19.77;;
5533;SDS011;2789;51.902;7.636;2024-02-21T03:19:46;29.48;;;25.88;;
5533;SDS011;2789;51.902;7.636;2024-02-21T03:20:50;40.70;;;34.63;;
5533;SDS011;2789;51.902;7.636;2024-02-21T03:21:51;45.58;;;40.90;;
5533;SDS011;2789;51.902;7.636;2024-02-21T03:22:54;49.03;;;43.83;;
5533;SDS011;2789;51.902;7.636;2024-02-21T03:23:56;41.08;;;36.97;;
5533;SDS011;2789;51.902;7.636;2024-02-21T03:24:59;33.25;;;30.33;;
5533;SDS011;2789;51.902;7.636;2024-02-21T03:26:02;50.20;;;42.63;;
5533;SDS011;2789;51.902;7.636;2024-02-21T03:27:04;48.00;;;43.03;;
5533;SDS011;2789;51.902;7.636;2024-02-21T03:28:06;49.42;;;44.33;;
5533;SDS011;2789;51.902;7.636;2024-02-21T03:29:10;64.57;;;50.00;;
5533;SDS011;2789;51.902;7.636;2024-02-21T03:30:12;48.55;;;43.45;;
5533;SDS011;2789;51.902;7.636;2024-02-21T03:31:15;39.30;;;35.90;;
5533;SDS011;2789;51.902;7.636;2024-02-21T03:32:17;60.75;;;48.00;;
5533;SDS011;2789;51.902;7.636;2024-02-21T03:33:19;41.72;;;37.40;;
5533;SDS011;2789;51.902;7.636;2024-02-21T03:34:22;61.30;;;48.50;;
5533;SDS011;2789;51.902;7.636;2024-02-21T03:35:25;50.55;;;42.95;;
5533;SDS011;2789;51.902;7.636;2024-02-21T03:36:28;83.65;;;59.13;;
5533;SDS011;2789;51.902;7.636;2024-02-21T03:37:31;77.93;;;56.15;;
5533;SDS011;2789;51.902;7.636;2024-02-21T03:38:32;84.55;;;62.25;;
5533;SDS011;2789;51.902;7.636;2024-02-21T03:39:35;78.55;;;58.75;;
5533;SDS011;2789;51.902;7.636;2024-02-21T03:40:38;65.85;;;50.97;;
5533;SDS011;2789;51.902;7.636;2024-02-21T03:41:42;91.95;;;63.03;;
5533;SDS011;2789;51.902;7.636;2024-02-21T03:42:44;50.65;;;44.85;;
5533;SDS011;2789;51.902;7.636;2024-02-21T03:43:47;60.25;;;50.17;;
5533;SDS011;2789;51.902;7.636;2024-02-21T03:44:49;64.43;;;52.00;;
5533;SDS011;2789;51.902;7.636;2024-02-21T03:45:50;62.35;;;50.03;;
5533;SDS011;2789;51.902;7.636;2024-02-21T03:46:53;52.33;;;46.45;;
5533;SDS011;2789;51.902;7.636;2024-02-21T03:47:55;65.28;;;54.97;;
5533;SDS011;2789;51.902;7.636;2024-02-21T03:48:57;75.35;;;60.38;;
5533;SDS011;2789;51.902;7.636;2024-02-21T03:49:59;73.20;;;57.38;;
5533;SDS011;2789;51.902;7.636;2024-02-21T03:51:02;80.30;;;60.25;;
5533;SDS011;2789;51.902;7.636;2024-02-21T03:52:05;63.88;;;53.85;;
5533;SDS011;2789;51.902;7.636;2024-02-21T03:53:07;106.18;;;70.80;;
5533;SDS011;2789;51.902;7.636;2024-02-21T03:54:10;64.15;;;52.75;;
5533;SDS011;2789;51.902;7.636;2024-02-21T03:55:13;68.95;;;53.75;;
5533;SDS011;2789;51.902;7.636;2024-02-21T03:56:15;100.32;;;69.57;;
5533;SDS011;2789;51.902;7.636;2024-02-21T03:57:18;63.72;;;53.88;;
5533;SDS011;2789;51.902;7.636;2024-02-21T03:58:20;62.50;;;52.38;;
5533;SDS011;2789;51.902;7.636;2024-02-21T03:59:23;100.47;;;71.47;;
5533;SDS011;2789;51.902;7.636;2024-02-21T04:00:25;70.82;;;58.72;;
5533;SDS011;2789;51.902;7.636;2024-02-21T04:01:27;80.20;;;62.13;;
5533;SDS011;2789;51.902;7.636;2024-02-21T04:02:29;85.28;;;63.50;;
5533;SDS011;2789;51.902;7.636;2024-02-21T04:03:31;77.93;;;60.15;;
5533;SDS011;2789;51.902;7.636;2024-02-21T04:04:34;118.07;;;77.18;;
5533;SDS011;2789;51.902;7.636;2024-02-21T04:05:36;92.45;;;65.88;;
5533;SDS011;2789;51.902;7.636;2024-02-21T04:06:45;99.63;;;69.30;;
5533;SDS011;2789;51.902;7.636;2024-02-21T04:07:47;79.65;;;61.22;;
5533;SDS011;2789;51.902;7.636;2024-02-21T04:08:51;76.75;;;60.15;;
5533;SDS011;2789;51.902;7.636;2024-02-21T04:09:53;66.78;;;56.03;;
5533;SDS011;2789;51.902;7.636;2024-02-21T04:10:55;71.75;;;56.78;;
5533;SDS011;2789;51.902;7.636;2024-02-21T04:11:57;52.47;;;47.17;;
5533;SDS011;2789;51.902;7.636;2024-02-21T04:13:01;50.78;;;45.45;;
5533;SDS011;2789;51.902;7.636;2024-02-21T04:14:03;64.40;;;51.45;;
5533;SDS011;2789;51.902;7.636;2024-02-21T04:15:06;61.47;;;50.88;;
5533;SDS011;2789;51.902;7.636;2024-02-21T04:16:08;92.43;;;69.55;;
5533;SDS011;2789;51.902;7.636;2024-02-21T04:17:10;74.15;;;57.47;;
5533;SDS011;2789;51.902;7.636;2024-02-21T04:18:12;105.00;;;75.78;;
5533;SDS011;2789;51.902;7.636;2024-02-21T04:19:16;61.53;;;53.35;;
5533;SDS011;2789;51.902;7.636;2024-02-21T04:20:18;59.83;;;52.47;;
5533;SDS011;2789;51.902;7.636;2024-02-21T04:21:20;58.63;;;52.38;;
5533;SDS011;2789;51.902;7.636;2024-02-21T04:22:22;67.00;;;55.10;;
5533;SDS011;2789;51.902;7.636;2024-02-21T04:23:24;58.08;;;51.58;;
5533;SDS011;2789;51.902;7.636;2024-02-21T04:24:26;62.65;;;53.75;;
5533;SDS011;2789;51.902;7.636;2024-02-21T04:25:28;78.57;;;61.08;;
5533;SDS011;2789;51.902;7.636;2024-02-21T04:26:31;81.85;;;63.03;;
5533;SDS011;2789;51.902;7.636;2024-02-21T04:27:32;71.20;;;57.80;;
5533;SDS011;2789;51.902;7.636;2024-02-21T04:28:36;71.20;;;59.95;;
5533;SDS011;2789;51.902;7.636;2024-02-21T04:29:38;98.32;;;70.85;;
5533;SDS011;2789;51.902;7.636;2024-02-21T04:30:41;65.22;;;54.85;;
5533;SDS011;2789;51.902;7.636;2024-02-21T04:31:43;82.35;;;63.38;;
5533;SDS011;2789;51.902;7.636;2024-02-21T04:32:44;80.53;;;62.08;;
5533;SDS011;2789;51.902;7.636;2024-02-21T04:33:47;65.85;;;56.00;;
5533;SDS011;2789;51.902;7.636;2024-02-21T04:34:49;61.63;;;54.08;;
5533;SDS011;2789;51.902;7.636;2024-02-21T04:35:51;63.63;;;55.22;;
5533;SDS011;2789;51.902;7.636;2024-02-21T04:36:55;72.57;;;58.35;;
5533;SDS011;2789;51.902;7.636;2024-02-21T04:37:58;68.43;;;56.80;;
5533;SDS011;2789;51.902;7.636;2024-02-21T04:39:00;68.70;;;56.90;;
5533;SDS011;2789;51.902;7.636;2024-02-21T04:40:03;104.60;;;72.63;;
5533;SDS011;2789;51.902;7.636;2024-02-21T04:41:05;69.05;;;57.95;;
5533;SDS011;2789;51.902;7.636;2024-02-21T04:42:07;61.30;;;54.15;;
5533;SDS011;2789;51.902;7.636;2024-02-21T04:43:09;122.75;;;81.82;;
5533;SDS011;2789;51.902;7.636;2024-02-21T04:44:13;87.70;;;66.60;;
5533;SDS011;2789;51.902;7.636;2024-02-21T04:45:15;78.50;;;60.30;;
5533;SDS011;2789;51.902;7.636;2024-02-21T04:46:16;105.80;;;75.68;;
5533;SDS011;2789;51.902;7.636;2024-02-21T04:47:19;70.55;;;56.88;;
5533;SDS011;2789;51.902;7.636;2024-02-21T04:48:21;71.85;;;58.03;;
5533;SDS011;2789;51.902;7.636;2024-02-21T04:49:23;86.65;;;67.40;;
5533;SDS011;2789;51.902;7.636;2024-02-21T04:50:25;64.60;;;56.20;;
5533;SDS011;2789;51.902;7.636;2024-02-21T04:51:28;70.97;;;60.45;;
5533;SDS011;2789;51.902;7.636;2024-02-21T04:52:30;47.25;;;42.58;;
5533;SDS011;2789;51.902;7.636;2024-02-21T04:53:33;52.97;;;44.60;;
5533;SDS011;2789;51.902;7.636;2024-02-21T04:54:34;77.47;;;56.15;;
5533;SDS011;2789;51.902;7.636;2024-02-21T04:55:37;89.63;;;60.50;;
5533;SDS011;2789;51.902;7.636;2024-02-21T04:56:39;58.15;;;48.05;;
5533;SDS011;2789;51.902;7.636;2024-02-21T04:57:41;80.70;;;56.25;;
5533;SDS011;2789;51.902;7.636;2024-02-21T04:58:43;48.63;;;41.90;;
5533;SDS011;2789;51.902;7.636;2024-02-21T04:59:47;57.72;;;48.30;;
5533;SDS011;2789;51.902;7.636;2024-02-21T05:00:49;77.82;;;60.33;;
5533;SDS011;2789;51.902;7.636;2024-02-21T05:01:52;75.90;;;59.17;;
5533;SDS011;2789;51.902;7.636;2024-02-21T05:02:54;80.90;;;62.85;;
5533;SDS011;2789;51.902;7.636;2024-02-21T05:03:56;71.55;;;58.67;;
5533;SDS011;2789;51.902;7.636;2024-02-21T05:04:58;69.63;;;58.85;;
5533;SDS011;2789;51.902;7.636;2024-02-21T05:06:01;70.70;;;59.40;;
5533;SDS011;2789;51.902;7.636;2024-02-21T05:07:02;77.85;;;62.22;;
5533;SDS011;2789;51.902;7.636;2024-02-21T05:08:05;72.10;;;59.90;;
5533;SDS011;2789;51.902;7.636;2024-02-21T05:09:08;103.00;;;73.25;;
5533;SDS011;2789;51.902;7.636;2024-02-21T05:10:11;86.25;;;65.85;;
5533;SDS011;2789;51.902;7.636;2024-02-21T05:11:13;70.90;;;58.83;;
5533;SDS011;2789;51.902;7.636;2024-02-21T05:12:16;83.38;;;64.05;;
5533;SDS011;2789;51.902;7.636;2024-02-21T05:13:17;70.80;;;57.85;;
5533;SDS011;2789;51.902;7.636;2024-02-21T05:14:20;77.57;;;60.92;;
5533;SDS011;2789;51.902;7.636;2024-02-21T05:15:23;86.32;;;65.18;;
5533;SDS011;2789;51.902;7.636;2024-02-21T05:16:26;83.10;;;64.30;;
5533;SDS011;2789;51.902;7.636;2024-02-21T05:17:27;72.18;;;58.30;;
5533;SDS011;2789;51.902;7.636;2024-02-21T05:18:30;70.78;;;59.55;;
5533;SDS011;2789;51.902;7.636;2024-02-21T05:19:32;62.05;;;54.75;;
5533;SDS011;2789;51.902;7.636;2024-02-21T05:20:35;118.85;;;80.68;;
5533;SDS011;2789;51.902;7.636;2024-02-21T05:21:37;92.57;;;68.32;;
5533;SDS011;2789;51.902;7.636;2024-02-21T05:22:39;109.68;;;76.30;;
5533;SDS011;2789;51.902;7.636;2024-02-21T05:23:41;103.88;;;72.35;;
5533;SDS011;2789;51.902;7.636;2024-02-21T05:24:44;99.72;;;70.93;;
5533;SDS011;2789;51.902;7.636;2024-02-21T05:25:45;149.48;;;91.22;;
5533;SDS011;2789;51.902;7.636;2024-02-21T05:26:48;99.53;;;70.65;;
5533;SDS011;2789;51.902;7.636;2024-02-21T05:27:50;90.47;;;66.03;;
5533;SDS011;2789;51.902;7.636;2024-02-21T05:28:54;110.15;;;74.05;;
5533;SDS011;2789;51.902;7.636;2024-02-21T05:29:56;76.20;;;57.90;;
5533;SDS011;2789;51.902;7.636;2024-02-21T05:31:00;77.72;;;59.95;;
5533;SDS011;2789;51.902;7.636;2024-02-21T05:32:02;92.75;;;67.70;;
5533;SDS011;2789;51.902;7.636;2024-02-21T05:33:05;66.82;;;55.08;;
5533;SDS011;2789;51.902;7.636;2024-02-21T05:34:07;109.00;;;73.63;;
5533;SDS011;2789;51.902;7.636;2024-02-21T05:35:10;80.10;;;59.45;;
5533;SDS011;2789;51.902;7.636;2024-02-21T05:36:12;108.13;;;77.35;;
5533;SDS011;2789;51.902;7.636;2024-02-21T05:37:15;71.07;;;56.35;;
5533;SDS011;2789;51.902;7.636;2024-02-21T05:38:17;109.35;;;74.65;;
5533;SDS011;2789;51.902;7.636;2024-02-21T05:39:20;105.78;;;74.07;;
5533;SDS011;2789;51.902;7.636;2024-02-21T05:40:24;86.20;;;65.82;;
5533;SDS011;2789;51.902;7.636;2024-02-21T05:41:26;87.03;;;66.25;;
5533;SDS011;2789;51.902;7.636;2024-02-21T05:42:28;73.97;;;59.38;;
5533;SDS011;2789;51.902;7.636;2024-02-21T05:43:31;77.47;;;61.33;;
5533;SDS011;2789;51.902;7.636;2024-02-21T05:44:33;81.57;;;62.88;;
5533;SDS011;2789;51.902;7.636;2024-02-21T05:45:35;87.38;;;64.20;;
5533;SDS011;2789;51.902;7.636;2024-02-21T05:46:38;108.38;;;73.80;;
5533;SDS011;2789;51.902;7.636;2024-02-21T05:47:41;126.22;;;80.07;;
5533;SDS011;2789;51.902;7.636;2024-02-21T05:48:43;77.28;;;59.70;;
5533;SDS011;2789;51.902;7.636;2024-02-21T05:49:46;82.82;;;62.58;;
5533;SDS011;2789;51.902;7.636;2024-02-21T05:50:48;95.43;;;67.28;;
5533;SDS011;2789;51.902;7.636;2024-02-21T05:51:51;111.82;;;74.57;;
5533;SDS011;2789;51.902;7.636;2024-02-21T05:52:52;85.45;;;63.05;;
5533;SDS011;2789;51.902;7.636;2024-02-21T05:53:56;66.15;;;54.17;;
5533;SDS011;2789;51.902;7.636;2024-02-21T05:54:58;98.43;;;70.57;;
5533;SDS011;2789;51.902;7.636;2024-02-21T05:56:01;71.53;;;56.55;;
5533;SDS011;2789;51.902;7.636;2024-02-21T05:57:03;91.50;;;63.83;;
5533;SDS011;2789;51.902;7.636;2024-02-21T05:58:05;102.30;;;67.35;;
5533;SDS011;2789;51.902;7.636;2024-02-21T05:59:08;104.03;;;65.50;;
5533;SDS011;2789;51.902;7.636;2024-02-21T06:00:09;93.05;;;62.50;;
5533;SDS011;2789;51.902;7.636;2024-02-21T06:01:13;86.50;;;60.42;;
5533;SDS011;2789;51.902;7.636;2024-02-21T06:02:16;83.43;;;58.10;;
5533;SDS011;2789;51.902;7.636;2024-02-21T06:03:18;75.65;;;57.03;;
5533;SDS011;2789;51.902;7.636;2024-02-21T06:04:20;115.65;;;74.85;;
5533;SDS011;2789;51.902;7.636;2024-02-21T06:05:23;106.65;;;69.82;;
5533;SDS011;2789;51.902;7.636;2024-02-21T06:06:24;145.13;;;91.20;;
5533;SDS011;2789;51.902;7.636;2024-02-21T06:07:27;87.97;;;61.78;;
5533;SDS011;2789;51.902;7.636;2024-02-21T06:08:29;89.45;;;63.88;;
5533;SDS011;2789;51.902;7.636;2024-02-21T06:09:31;82.97;;;61.28;;
5533;SDS011;2789;51.902;7.636;2024-02-21T06:10:34;78.93;;;61.03;;
5533;SDS011;2789;51.902;7.636;2024-02-21T06:11:35;107.90;;;70.35;;
5533;SDS011;2789;51.902;7.636;2024-02-21T06:12:39;86.03;;;62.00;;
5533;SDS011;2789;51.902;7.636;2024-02-21T06:13:41;85.57;;;62.42;;
5533;SDS011;2789;51.902;7.636;2024-02-21T06:14:42;92.38;;;65.40;;
5533;SDS011;2789;51.902;7.636;2024-02-21T06:15:45;94.93;;;68.03;;
5533;SDS011;2789;51.902;7.636;2024-02-21T06:16:46;86.80;;;63.80;;